Time;durP1;ratioP1;P1;durP2;ratioP2;P2;SDS_P1;SDS_P2;PMS_P1;PMS_P2;Temp;Humidity;BMP_temperature;BMP_pressure;BME280_temperature;BME280_humidity;BME280_pressure;Samples;Min_cycle;Max_cycle;Signal;HPM_P1;HPM_P2
2022/01/31 00:01:07;;;;;;;8.73;8.33;;;19.20;53.20;;;;;;5012187;28;20446;-46
2022/01/31 00:03:36;;;;;;;7.40;7.10;;;19.10;53.40;;;;;;5012397;28;20489;-47
2022/01/31 00:06:03;;;;;;;8.37;7.67;;;19.10;53.50;;;;;;5012420;28;20453;-46
2022/01/31 00:08:31;;;;;;;7.77;7.57;;;19.00;53.60;;;;;;5023255;28;20452;-47
2022/01/31 00:10:57;;;;;;;7.47;7.17;;;18.90;53.70;;;;;;5032144;28;20477;-50
2022/01/31 00:13:32;;;;;;;7.83;7.53;;;18.90;53.90;;;;;;5032339;28;20451;-46
2022/01/31 00:15:59;;;;;;;7.23;7.03;;;18.80;54.10;;;;;;5032125;28;20445;-45
2022/01/31 00:18:25;;;;;;;7.20;7.00;;;18.80;54.30;;;;;;5032286;28;20459;-46
2022/01/31 00:20:54;;;;;;;7.77;7.47;;;18.70;54.30;;;;;;5030102;28;20476;-46
2022/01/31 00:23:20;;;;;;;7.43;7.20;;;18.60;54.40;;;;;;5032030;28;20491;-46
2022/01/31 00:25:47;;;;;;;7.87;7.57;;;18.60;54.60;;;;;;5020545;28;20974;-45
2022/01/31 00:28:14;;;;;;;8.40;8.00;;;18.50;54.70;;;;;;5018427;28;20459;-45
2022/01/31 00:30:41;;;;;;;7.20;7.00;;;18.50;54.90;;;;;;5031886;28;20464;-45
2022/01/31 00:33:08;;;;;;;8.23;7.93;;;18.50;55.10;;;;;;5031965;28;20445;-45
2022/01/31 00:35:35;;;;;;;7.47;7.17;;;18.40;55.10;;;;;;5031660;28;20957;-45
2022/01/31 00:38:04;;;;;;;7.97;7.50;;;18.40;55.30;;;;;;5026996;28;20446;-45
2022/01/31 00:40:30;;;;;;;7.40;7.10;;;18.30;55.60;;;;;;5012098;28;20477;-47
2022/01/31 00:42:57;;;;;;;7.60;7.30;;;18.20;55.80;;;;;;5011951;28;20482;-46
2022/01/31 00:45:26;;;;;;;8.23;7.73;;;18.10;56.10;;;;;;5012034;28;20446;-45
2022/01/31 00:48:01;;;;;;;7.93;7.70;;;18.10;56.40;;;;;;5011994;28;20450;-45
2022/01/31 00:50:28;;;;;;;7.00;6.70;;;18.00;56.40;;;;;;5017784;28;20875;-45
2022/01/31 00:52:56;;;;;;;7.07;6.73;;;18.00;56.60;;;;;;5031796;28;20507;-45
2022/01/31 00:55:24;;;;;;;7.60;7.40;;;17.90;56.50;;;;;;5031522;28;20449;-45
2022/01/31 00:57:51;;;;;;;7.83;7.43;;;18.00;56.50;;;;;;5031626;28;20471;-45
2022/01/31 01:00:18;;;;;;;6.70;6.50;;;18.10;56.40;;;;;;5031460;28;20476;-45
2022/01/31 01:02:46;;;;;;;7.90;7.60;;;18.10;56.30;;;;;;5022256;28;20478;-45
2022/01/31 01:05:14;;;;;;;8.27;7.90;;;18.10;56.20;;;;;;5011710;28;20534;-47
2022/01/31 01:07:45;;;;;;;7.50;7.20;;;18.10;56.10;;;;;;5011651;28;20450;-44
2022/01/31 01:10:12;;;;;;;8.27;7.97;;;18.10;56.20;;;;;;5011657;28;20478;-45
2022/01/31 01:12:41;;;;;;;7.87;7.40;;;18.00;56.10;;;;;;5012258;28;20963;-47
2022/01/31 01:15:08;;;;;;;7.67;7.17;;;18.00;56.00;;;;;;5029504;28;20445;-46
2022/01/31 01:17:35;;;;;;;7.70;7.50;;;18.00;55.90;;;;;;5035428;28;20938;-45
2022/01/31 01:20:02;;;;;;;7.27;6.93;;;17.90;56.10;;;;;;5035508;28;20469;-45
2022/01/31 01:22:28;;;;;;;8.23;7.73;;;17.90;56.10;;;;;;5035394;28;20476;-45
2022/01/31 01:24:55;;;;;;;7.87;7.57;;;17.90;56.20;;;;;;5035446;28;20447;-46
2022/01/31 01:27:23;;;;;;;9.77;9.40;;;17.80;56.20;;;;;;5019258;28;20446;-46
2022/01/31 01:29:51;;;;;;;7.70;7.40;;;17.80;56.40;;;;;;5015617;28;20465;-45
2022/01/31 01:32:18;;;;;;;7.60;7.30;;;17.80;56.40;;;;;;5015483;28;20482;-45
2022/01/31 01:34:45;;;;;;;7.80;7.60;;;17.80;56.40;;;;;;5015478;28;20446;-44
2022/01/31 01:37:12;;;;;;;7.33;7.10;;;17.80;56.40;;;;;;5015287;28;20438;-48
2022/01/31 01:39:39;;;;;;;6.60;6.40;;;17.80;56.40;;;;;;5031634;28;20480;-45
2022/01/31 01:42:06;;;;;;;7.00;6.60;;;17.80;56.40;;;;;;5034662;28;20456;-45
2022/01/31 01:44:40;;;;;;;7.50;7.10;;;17.80;56.40;;;;;;5034693;28;20961;-45
2022/01/31 01:47:08;;;;;;;6.90;6.70;;;17.70;56.40;;;;;;5034874;28;20583;-46
2022/01/31 01:49:35;;;;;;;7.40;7.10;;;17.70;56.40;;;;;;5034890;28;20476;-45
2022/01/31 01:52:03;;;;;;;7.60;7.30;;;17.70;56.50;;;;;;5016904;28;20442;-46
2022/01/31 01:54:30;;;;;;;7.33;7.10;;;17.70;56.40;;;;;;5015147;28;20556;-44
2022/01/31 01:56:58;;;;;;;7.47;7.17;;;17.60;56.40;;;;;;5014812;28;20829;-44
2022/01/31 01:59:25;;;;;;;8.17;7.87;;;17.60;56.30;;;;;;5015014;28;20547;-47
2022/01/31 02:01:52;;;;;;;7.40;7.10;;;17.60;56.50;;;;;;5016169;28;20446;-45
2022/01/31 02:04:20;;;;;;;7.27;6.97;;;17.60;56.50;;;;;;5034609;28;20481;-46
2022/01/31 02:06:47;;;;;;;7.40;7.10;;;17.50;56.60;;;;;;5034498;28;20938;-48
2022/01/31 02:09:14;;;;;;;7.83;7.33;;;17.40;56.70;;;;;;5034523;28;20530;-45
2022/01/31 02:11:40;;;;;;;7.20;7.00;;;17.40;56.80;;;;;;5034750;28;20441;-45
2022/01/31 02:14:07;;;;;;;7.67;7.27;;;17.40;56.70;;;;;;5032118;28;20776;-45
2022/01/31 02:16:34;;;;;;;6.67;6.47;;;17.40;56.70;;;;;;5014555;28;20449;-45
2022/01/31 02:19:01;;;;;;;6.83;6.53;;;17.40;57.00;;;;;;5014692;28;20823;-48
2022/01/31 02:21:29;;;;;;;7.07;6.77;;;17.30;56.90;;;;;;5014624;28;20454;-46
2022/01/31 02:23:56;;;;;;;7.13;6.90;;;17.30;56.80;;;;;;5014308;28;20496;-45
2022/01/31 02:26:23;;;;;;;6.70;6.50;;;17.30;56.90;;;;;;5019872;28;20442;-47
2022/01/31 02:28:50;;;;;;;7.10;6.90;;;17.30;56.80;;;;;;5034163;28;20453;-46
2022/01/31 02:31:17;;;;;;;7.60;7.30;;;17.30;57.10;;;;;;5033938;28;20913;-45
2022/01/31 02:33:43;;;;;;;7.30;7.00;;;17.20;56.80;;;;;;5034166;28;20456;-47
2022/01/31 02:36:10;;;;;;;7.30;7.10;;;17.20;56.80;;;;;;5034032;28;20799;-45
2022/01/31 02:38:38;;;;;;;7.13;6.93;;;17.20;57.10;;;;;;5023076;28;20958;-45
2022/01/31 02:41:05;;;;;;;7.17;6.87;;;17.10;57.30;;;;;;5014253;28;20465;-45
2022/01/31 02:43:34;;;;;;;6.70;6.50;;;17.10;57.50;;;;;;5014198;28;20474;-45
2022/01/31 02:46:02;;;;;;;7.23;6.93;;;17.10;57.60;;;;;;5015054;28;20442;-45
2022/01/31 02:48:32;;;;;;;7.83;7.43;;;17.10;57.40;;;;;;5014176;28;20808;-45
2022/01/31 02:50:59;;;;;;;6.90;6.60;;;17.00;57.60;;;;;;5014051;28;20474;-45
2022/01/31 02:53:28;;;;;;;7.40;7.20;;;17.00;57.70;;;;;;5014032;28;20450;-45
2022/01/31 02:55:58;;;;;;;6.97;6.77;;;17.00;57.60;;;;;;5017301;28;20902;-45
2022/01/31 02:58:26;;;;;;;8.07;7.77;;;17.00;57.70;;;;;;5033639;28;20452;-45
2022/01/31 03:00:55;;;;;;;7.73;7.43;;;17.00;57.80;;;;;;5033696;28;20480;-45
2022/01/31 03:03:22;;;;;;;7.30;7.10;;;16.90;58.00;;;;;;5033520;28;20845;-46
2022/01/31 03:05:49;;;;;;;7.17;6.90;;;16.90;58.10;;;;;;5033485;28;20448;-45
2022/01/31 03:08:17;;;;;;;7.23;7.03;;;16.90;57.90;;;;;;5026831;28;20446;-46
2022/01/31 03:10:43;;;;;;;7.53;7.23;;;16.80;58.00;;;;;;5013658;28;20478;-45
2022/01/31 03:13:12;;;;;;;6.90;6.70;;;16.80;58.10;;;;;;5013768;28;20473;-46
2022/01/31 03:15:38;;;;;;;7.80;7.40;;;16.80;58.00;;;;;;5013456;28;20453;-45
2022/01/31 03:18:06;;;;;;;7.10;6.90;;;16.80;58.10;;;;;;5013495;28;20450;-46
2022/01/31 03:20:33;;;;;;;7.60;7.40;;;16.80;58.20;;;;;;5021842;28;20477;-46
2022/01/31 03:23:01;;;;;;;7.70;7.40;;;16.70;58.40;;;;;;5033244;28;20485;-45
2022/01/31 03:25:28;;;;;;;8.40;8.00;;;16.60;58.30;;;;;;5033019;28;20454;-45
2022/01/31 03:27:55;;;;;;;7.67;7.37;;;16.60;58.50;;;;;;5033125;28;20511;-46
2022/01/31 03:30:24;;;;;;;6.80;6.60;;;16.70;58.50;;;;;;5033066;28;20559;-48
2022/01/31 03:32:52;;;;;;;7.70;7.30;;;16.60;58.50;;;;;;5022674;28;20453;-48
2022/01/31 03:35:19;;;;;;;6.87;6.70;;;16.70;58.60;;;;;;5013132;28;20819;-46
2022/01/31 03:37:46;;;;;;;7.40;7.10;;;16.60;58.70;;;;;;5030660;28;20456;-45
2022/01/31 03:40:14;;;;;;;7.37;7.17;;;16.60;58.60;;;;;;5032815;28;20985;-45
2022/01/31 03:42:41;;;;;;;7.33;7.10;;;16.50;58.70;;;;;;5032825;28;20441;-45
2022/01/31 03:45:10;;;;;;;7.30;7.10;;;16.50;58.90;;;;;;5032787;28;20453;-47
2022/01/31 03:47:44;;;;;;;6.73;6.60;;;16.60;58.90;;;;;;5015219;28;20452;-45
2022/01/31 03:50:12;;;;;;;7.40;7.20;;;16.60;58.80;;;;;;5013085;28;20470;-46
2022/01/31 03:52:39;;;;;;;7.63;7.43;;;16.60;58.80;;;;;;5012815;28;20446;-45
2022/01/31 03:55:06;;;;;;;7.30;7.10;;;16.50;58.90;;;;;;5012844;28;20461;-45
2022/01/31 03:57:33;;;;;;;7.50;7.20;;;16.60;59.10;;;;;;5013750;28;20456;-45
2022/01/31 04:00:01;;;;;;;7.23;7.03;;;16.50;58.80;;;;;;5032479;28;20465;-45
2022/01/31 04:02:28;;;;;;;7.40;7.20;;;16.50;58.90;;;;;;5032183;28;20449;-46
2022/01/31 04:04:56;;;;;;;7.70;7.23;;;16.60;59.00;;;;;;5032402;28;20801;-46
2022/01/31 04:07:22;;;;;;;7.57;7.37;;;16.50;58.80;;;;;;5032119;28;20444;-45
2022/01/31 04:09:49;;;;;;;7.70;7.50;;;16.50;59.00;;;;;;5030419;28;20477;-45
2022/01/31 04:12:16;;;;;;;8.20;7.80;;;16.50;59.10;;;;;;5012494;28;20446;-47
2022/01/31 04:14:43;;;;;;;7.10;6.90;;;16.50;59.20;;;;;;5012607;28;20441;-45
2022/01/31 04:17:10;;;;;;;6.93;6.73;;;16.40;59.00;;;;;;5012292;28;20461;-46
2022/01/31 04:19:38;;;;;;;7.63;7.43;;;16.50;59.10;;;;;;5012513;28;20481;-44
2022/01/31 04:22:11;;;;;;;8.03;7.83;;;16.50;59.20;;;;;;5017317;28;20449;-44
2022/01/31 04:24:40;;;;;;;8.47;7.93;;;16.50;59.10;;;;;;5032237;28;20892;-44
2022/01/31 04:27:07;;;;;;;7.67;7.37;;;16.40;59.00;;;;;;5031905;28;20543;-45
2022/01/31 04:29:37;;;;;;;6.63;6.53;;;16.40;59.10;;;;;;5032091;28;20544;-46
2022/01/31 04:32:04;;;;;;;7.20;7.00;;;16.40;59.10;;;;;;5032033;28;21016;-45
2022/01/31 04:34:32;;;;;;;8.27;7.97;;;16.30;59.10;;;;;;5021390;28;20458;-45
2022/01/31 04:36:59;;;;;;;8.03;7.43;;;16.30;59.10;;;;;;5013162;28;20491;-46
2022/01/31 04:39:28;;;;;;;7.50;7.30;;;16.30;59.10;;;;;;5031869;28;20491;-45
2022/01/31 04:41:54;;;;;;;7.50;7.20;;;16.30;59.30;;;;;;5031884;28;20930;-47
2022/01/31 04:44:21;;;;;;;7.57;7.30;;;16.30;59.30;;;;;;5031743;28;21001;-44
2022/01/31 04:46:49;;;;;;;7.50;7.30;;;16.30;59.30;;;;;;5019217;28;20477;-45
2022/01/31 04:49:16;;;;;;;7.53;7.33;;;16.30;59.50;;;;;;5011608;28;20466;-47
2022/01/31 04:51:43;;;;;;;7.80;7.60;;;16.20;60.10;;;;;;5011928;28;20454;-45
2022/01/31 04:54:10;;;;;;;7.83;7.43;;;16.20;59.70;;;;;;5012041;28;20446;-49
2022/01/31 04:56:41;;;;;;;7.87;7.47;;;16.20;59.70;;;;;;5011668;28;20445;-45
2022/01/31 04:59:09;;;;;;;8.00;7.80;;;16.30;59.90;;;;;;5027800;28;20557;-45
2022/01/31 05:01:38;;;;;;;9.00;8.70;;;16.30;59.90;;;;;;5031676;28;20514;-45
2022/01/31 05:04:06;;;;;;;7.80;7.60;;;16.20;59.90;;;;;;5031637;28;20884;-46
2022/01/31 05:06:36;;;;;;;8.17;7.97;;;16.20;60.10;;;;;;5031386;28;20449;-45
2022/01/31 05:09:03;;;;;;;8.17;7.97;;;16.20;60.10;;;;;;5031891;28;20472;-44
2022/01/31 05:11:31;;;;;;;8.23;7.97;;;16.20;60.30;;;;;;5012853;28;20450;-46
2022/01/31 05:13:59;;;;;;;7.70;7.43;;;16.20;60.60;;;;;;5011926;28;20847;-45
2022/01/31 05:16:25;;;;;;;8.10;7.80;;;16.20;60.80;;;;;;5029593;28;20452;-45
2022/01/31 05:18:52;;;;;;;7.67;7.47;;;16.10;60.80;;;;;;5031485;28;20445;-44
2022/01/31 05:21:19;;;;;;;7.97;7.67;;;16.10;61.40;;;;;;5029741;28;20445;-46
2022/01/31 05:23:47;;;;;;;8.97;8.67;;;16.10;61.70;;;;;;5011568;28;20844;-44
2022/01/31 05:26:14;;;;;;;8.07;7.87;;;16.10;62.20;;;;;;5011688;28;20500;-45
2022/01/31 05:28:41;;;;;;;8.47;8.23;;;16.10;62.40;;;;;;5011600;28;20457;-44
2022/01/31 05:31:09;;;;;;;8.57;8.30;;;16.10;62.60;;;;;;5011612;28;20928;-44
2022/01/31 05:33:35;;;;;;;8.20;8.00;;;16.10;62.90;;;;;;5013491;28;20450;-45
2022/01/31 05:36:02;;;;;;;8.93;8.53;;;16.10;63.40;;;;;;5031026;28;20449;-44
2022/01/31 05:38:34;;;;;;;8.23;8.03;;;16.10;63.70;;;;;;5031254;28;20445;-48
2022/01/31 05:41:04;;;;;;;9.00;8.60;;;16.10;63.70;;;;;;5013022;28;20835;-44
2022/01/31 05:43:31;;;;;;;8.53;8.33;;;16.00;64.00;;;;;;5011515;28;21005;-45
2022/01/31 05:45:58;;;;;;;8.70;8.40;;;16.00;64.10;;;;;;5014881;28;20966;-44
2022/01/31 05:48:26;;;;;;;8.63;8.43;;;16.00;64.00;;;;;;5023259;28;20453;-45
2022/01/31 05:50:53;;;;;;;9.23;8.93;;;16.50;66.00;;;;;;5011472;28;21021;-44
2022/01/31 05:53:20;;;;;;;9.47;9.17;;;17.70;63.30;;;;;;5011557;28;20449;-45
2022/01/31 05:55:46;;;;;;;9.13;8.73;;;18.30;60.10;;;;;;5011261;28;20442;-44
2022/01/31 05:58:13;;;;;;;8.53;8.33;;;18.70;58.40;;;;;;5015815;28;20441;-46
2022/01/31 06:00:40;;;;;;;9.43;9.13;;;19.00;57.70;;;;;;5033138;28;20468;-45
2022/01/31 06:03:07;;;;;;;9.20;8.90;;;19.20;56.70;;;;;;5034849;28;20467;-44
2022/01/31 06:05:35;;;;;;;9.10;8.80;;;19.40;55.90;;;;;;5034661;28;20480;-45
2022/01/31 06:08:02;;;;;;;8.90;8.70;;;19.50;55.50;;;;;;5034780;28;20449;-47
2022/01/31 06:10:28;;;;;;;9.30;9.00;;;19.50;55.10;;;;;;5034031;28;20469;-45
2022/01/31 06:12:56;;;;;;;10.40;9.90;;;19.60;54.30;;;;;;5034591;28;20764;-48
2022/01/31 06:15:23;;;;;;;10.27;9.60;;;19.70;54.10;;;;;;5034406;28;20491;-45
2022/01/31 06:17:50;;;;;;;10.20;9.80;;;19.80;54.80;;;;;;5034704;28;20457;-44
2022/01/31 06:20:17;;;;;;;11.67;11.13;;;19.80;55.60;;;;;;5033910;28;20823;-45
2022/01/31 06:22:50;;;;;;;10.77;10.10;;;19.80;55.80;;;;;;5014510;28;20446;-45
2022/01/31 06:25:18;;;;;;;11.57;10.67;;;19.80;55.90;;;;;;5014440;28;20485;-44
2022/01/31 06:27:45;;;;;;;10.43;9.73;;;19.90;55.70;;;;;;5014648;28;20485;-44
2022/01/31 06:30:12;;;;;;;11.30;10.60;;;19.90;55.80;;;;;;5014510;28;20855;-45
2022/01/31 06:32:39;;;;;;;11.17;10.37;;;19.90;56.70;;;;;;5017276;28;20450;-44
2022/01/31 06:35:08;;;;;;;14.50;13.30;;;19.90;59.40;;;;;;5027533;28;20438;-44
2022/01/31 06:37:35;;;;;;;11.30;10.60;;;19.80;61.50;;;;;;5014252;28;20920;-50
2022/01/31 06:40:05;;;;;;;12.03;10.90;;;19.80;61.60;;;;;;5016432;28;21135;-45
2022/01/31 06:42:31;;;;;;;10.53;9.63;;;19.80;62.60;;;;;;5033994;28;20441;-44
2022/01/31 06:44:58;;;;;;;10.40;9.80;;;19.80;61.70;;;;;;5033888;28;20481;-44
2022/01/31 06:47:25;;;;;;;11.63;10.40;;;19.80;60.30;;;;;;5033695;28;20437;-45
2022/01/31 06:49:52;;;;;;;11.03;10.33;;;19.80;59.70;;;;;;5033686;28;20473;-44
2022/01/31 06:52:19;;;;;;;9.93;9.50;;;19.80;59.10;;;;;;5033711;28;20937;-44
2022/01/31 06:54:50;;;;;;;11.77;10.90;;;19.80;58.40;;;;;;5033818;28;20441;-44
2022/01/31 06:57:18;;;;;;;10.33;9.83;;;19.70;57.80;;;;;;5033629;28;20511;-44
2022/01/31 06:59:45;;;;;;;10.80;10.17;;;19.70;57.40;;;;;;5033552;28;20531;-46
2022/01/31 07:02:11;;;;;;;11.23;10.53;;;19.60;57.00;;;;;;5033788;28;20449;-45
2022/01/31 07:04:38;;;;;;;11.07;10.57;;;19.60;56.80;;;;;;5033504;28;20492;-45
2022/01/31 07:07:05;;;;;;;10.13;9.73;;;19.50;56.60;;;;;;5033416;28;20459;-45
2022/01/31 07:09:33;;;;;;;9.33;8.70;;;19.50;56.40;;;;;;5033337;28;20484;-44
2022/01/31 07:12:02;;;;;;;8.90;8.40;;;19.40;56.00;;;;;;5033253;28;20453;-44
2022/01/31 07:14:33;;;;;;;10.07;9.40;;;19.40;55.80;;;;;;5033610;28;20452;-44
2022/01/31 07:17:01;;;;;;;9.37;8.67;;;19.30;55.40;;;;;;5033290;28;20449;-44
2022/01/31 07:19:30;;;;;;;9.63;8.87;;;19.20;55.00;;;;;;5033239;28;20827;-46
2022/01/31 07:21:57;;;;;;;9.10;8.30;;;19.20;54.80;;;;;;5033228;28;20448;-44
2022/01/31 07:24:30;;;;;;;8.70;8.30;;;19.10;54.80;;;;;;5033149;28;20836;-45
2022/01/31 07:26:57;;;;;;;9.20;8.80;;;19.10;54.80;;;;;;5032994;28;20943;-44
2022/01/31 07:29:24;;;;;;;10.33;9.70;;;19.00;54.70;;;;;;5033033;28;20465;-44
2022/01/31 07:31:52;;;;;;;10.70;10.20;;;19.00;54.90;;;;;;5033119;28;20449;-45
2022/01/31 07:34:20;;;;;;;11.17;10.37;;;18.90;54.90;;;;;;5033059;28;20483;-44
2022/01/31 07:36:47;;;;;;;10.13;9.53;;;18.80;54.90;;;;;;5032819;28;20520;-44
2022/01/31 07:39:15;;;;;;;9.10;8.83;;;18.80;54.90;;;;;;5032969;28;20465;-44
2022/01/31 07:41:42;;;;;;;10.03;9.13;;;18.80;54.80;;;;;;5033005;28;20806;-45
2022/01/31 07:44:10;;;;;;;9.20;8.80;;;18.70;54.80;;;;;;5032756;28;20481;-45
2022/01/31 07:46:37;;;;;;;8.97;8.67;;;18.70;54.60;;;;;;5032797;28;20445;-45
2022/01/31 07:49:06;;;;;;;8.40;8.10;;;18.70;54.60;;;;;;5032613;28;20472;-45
2022/01/31 07:51:34;;;;;;;9.20;8.80;;;18.60;54.50;;;;;;5032673;28;20476;-44
2022/01/31 07:54:01;;;;;;;8.47;7.83;;;18.50;54.50;;;;;;5032759;28;20445;-45
2022/01/31 07:56:28;;;;;;;8.97;8.57;;;18.50;54.50;;;;;;5032457;28;20448;-45
2022/01/31 07:58:55;;;;;;;8.37;8.07;;;18.50;54.40;;;;;;5032441;28;20982;-45
2022/01/31 08:01:21;;;;;;;8.43;8.23;;;18.40;54.30;;;;;;5032481;28;20460;-44
2022/01/31 08:03:48;;;;;;;8.53;8.23;;;18.30;54.40;;;;;;5032581;28;20526;-44
2022/01/31 08:06:16;;;;;;;9.27;8.97;;;18.30;54.50;;;;;;5032194;28;20492;-44
2022/01/31 08:08:43;;;;;;;9.00;8.70;;;18.20;54.50;;;;;;5032228;28;20477;-45
2022/01/31 08:11:10;;;;;;;9.07;8.57;;;18.10;54.40;;;;;;5032441;28;20453;-44
2022/01/31 08:13:38;;;;;;;8.87;8.53;;;18.10;54.70;;;;;;5032395;28;20825;-44
2022/01/31 08:16:10;;;;;;;8.83;8.43;;;18.10;54.60;;;;;;5032122;28;20441;-45
2022/01/31 08:18:39;;;;;;;9.40;9.10;;;17.90;54.40;;;;;;5032218;28;20452;-44
2022/01/31 08:21:06;;;;;;;10.20;9.70;;;17.80;54.70;;;;;;5032276;28;20449;-45
2022/01/31 08:23:35;;;;;;;10.70;9.90;;;17.70;54.90;;;;;;5031553;28;20449;-44
2022/01/31 08:26:04;;;;;;;9.30;8.70;;;17.70;54.90;;;;;;5031845;28;20491;-44
2022/01/31 08:28:36;;;;;;;8.90;8.50;;;17.60;55.10;;;;;;5032031;28;20450;-43
2022/01/31 08:31:10;;;;;;;8.37;7.90;;;17.80;55.30;;;;;;5032149;28;20540;-44
2022/01/31 08:33:39;;;;;;;9.20;8.80;;;18.10;55.10;;;;;;5032142;28;20445;-44
2022/01/31 08:36:09;;;;;;;9.77;9.37;;;18.30;54.60;;;;;;5031998;28;20445;-43
2022/01/31 08:38:39;;;;;;;9.47;8.93;;;18.40;54.20;;;;;;5031880;28;20445;-46
2022/01/31 08:41:07;;;;;;;9.33;9.07;;;18.60;53.70;;;;;;5032121;28;20456;-44
2022/01/31 08:43:34;;;;;;;8.57;8.37;;;18.70;53.30;;;;;;5031931;28;20445;-44
2022/01/31 08:46:01;;;;;;;8.90;8.60;;;18.80;53.00;;;;;;5031495;28;20848;-44
2022/01/31 08:48:30;;;;;;;10.50;9.80;;;18.80;52.70;;;;;;5031788;28;20449;-44
2022/01/31 08:50:58;;;;;;;8.87;8.47;;;18.80;52.30;;;;;;5031666;28;20515;-46
2022/01/31 08:53:25;;;;;;;9.80;9.50;;;18.80;52.30;;;;;;5031639;28;20445;-44
2022/01/31 08:55:55;;;;;;;8.13;7.93;;;18.80;52.30;;;;;;5031613;28;20437;-44
2022/01/31 08:58:22;;;;;;;8.63;8.23;;;18.90;52.20;;;;;;5031893;28;20445;-45
2022/01/31 09:00:58;;;;;;;9.50;9.20;;;18.80;52.10;;;;;;5031422;28;20469;-44
2022/01/31 09:03:41;;;;;;;8.90;8.60;;;18.80;52.10;;;;;;5031614;28;20441;-45
2022/01/31 09:06:10;;;;;;;8.60;8.20;;;18.80;52.00;;;;;;5031295;28;20485;-45
2022/01/31 09:08:37;;;;;;;8.60;8.37;;;18.80;52.00;;;;;;5031460;28;20817;-45
2022/01/31 09:11:06;;;;;;;9.67;8.97;;;18.70;51.90;;;;;;5031544;28;20445;-44
2022/01/31 09:13:34;;;;;;;9.33;9.03;;;18.70;51.80;;;;;;5031470;28;20441;-45
2022/01/31 09:16:01;;;;;;;9.40;9.10;;;18.70;51.70;;;;;;5031232;28;20946;-45
2022/01/31 09:18:28;;;;;;;9.10;8.70;;;18.60;51.70;;;;;;5031527;28;20441;-45
2022/01/31 09:20:55;;;;;;;9.93;9.60;;;18.60;51.70;;;;;;5031390;28;20461;-45
2022/01/31 09:23:22;;;;;;;9.40;9.10;;;18.60;51.70;;;;;;5031439;28;20436;-45
2022/01/31 09:25:48;;;;;;;9.90;9.60;;;18.50;51.70;;;;;;5031108;28;20481;-47
2022/01/31 09:28:17;;;;;;;10.07;9.67;;;18.50;51.70;;;;;;5031420;28;20528;-45
2022/01/31 09:30:45;;;;;;;9.40;9.00;;;18.50;51.70;;;;;;5031214;28;20468;-44
2022/01/31 09:33:12;;;;;;;9.37;9.17;;;18.50;51.70;;;;;;5031271;28;20449;-45
2022/01/31 09:35:40;;;;;;;9.77;9.30;;;18.50;51.70;;;;;;5035121;28;20456;-44
2022/01/31 09:38:08;;;;;;;8.60;8.40;;;18.40;51.70;;;;;;5035240;28;20448;-46
2022/01/31 09:40:36;;;;;;;9.00;8.70;;;18.30;51.80;;;;;;5035045;28;20473;-46
2022/01/31 09:43:13;;;;;;;8.73;8.33;;;18.30;51.90;;;;;;5035163;28;20946;-45
2022/01/31 09:45:59;;;;;;;10.40;9.80;;;18.30;51.90;;;;;;5034782;28;20485;-45
2022/01/31 09:48:32;;;;;;;9.70;9.30;;;18.20;51.70;;;;;;5035192;28;20458;-45
2022/01/31 09:51:00;;;;;;;9.17;8.87;;;18.20;51.90;;;;;;5035009;28;20507;-46
2022/01/31 09:53:27;;;;;;;9.73;9.43;;;18.10;51.90;;;;;;5035124;28;20783;-45
2022/01/31 09:55:53;;;;;;;9.40;9.20;;;18.10;51.90;;;;;;5034730;28;20950;-45
2022/01/31 09:58:20;;;;;;;9.60;9.30;;;18.00;52.00;;;;;;5034827;28;20445;-45
2022/01/31 10:01:03;;;;;;;9.60;9.30;;;18.00;52.30;;;;;;5034785;28;20461;-44
2022/01/31 10:03:30;;;;;;;9.73;9.53;;;17.90;52.20;;;;;;5034926;28;20445;-44
2022/01/31 10:05:56;;;;;;;9.57;9.27;;;17.80;52.20;;;;;;5034442;28;20492;-44
2022/01/31 10:08:29;;;;;;;10.30;9.90;;;17.70;52.50;;;;;;5034682;28;20453;-44
2022/01/31 10:11:00;;;;;;;9.53;9.23;;;17.80;52.60;;;;;;5034411;28;20477;-45
2022/01/31 10:16:28;;;;;;;8.93;8.73;;;18.10;52.50;;;;;;5034492;28;20417;-44
2022/01/31 10:19:07;;;;;;;9.57;9.17;;;18.20;52.10;;;;;;5034499;28;20834;-44
2022/01/31 10:21:55;;;;;;;11.13;10.63;;;18.40;51.80;;;;;;5034585;28;20451;-44
2022/01/31 10:24:22;;;;;;;8.77;8.47;;;18.60;51.40;;;;;;5034467;28;20931;-44
2022/01/31 10:26:49;;;;;;;9.47;9.27;;;18.60;51.00;;;;;;5034004;28;20487;-44
2022/01/31 10:29:17;;;;;;;9.20;8.90;;;18.60;50.90;;;;;;5034242;28;20990;-44
2022/01/31 10:32:04;;;;;;;9.70;9.40;;;18.60;50.90;;;;;;5034204;28;20449;-44
2022/01/31 10:34:32;;;;;;;9.03;8.73;;;18.60;50.70;;;;;;5034352;28;20445;-45
2022/01/31 10:37:08;;;;;;;8.80;8.50;;;18.60;50.60;;;;;;5033845;28;20448;-44
2022/01/31 10:53:59;;;;;;;10.20;9.60;;;18.50;50.40;;;;;;5033989;28;20428;-44
2022/01/31 10:56:35;;;;;;;10.07;9.77;;;18.50;50.30;;;;;;5033633;28;20448;-45
2022/01/31 10:59:05;;;;;;;9.13;8.83;;;18.50;50.20;;;;;;5033829;28;20465;-44
2022/01/31 11:01:32;;;;;;;8.63;8.33;;;18.50;50.20;;;;;;5034095;28;20437;-44
2022/01/31 11:04:03;;;;;;;9.43;9.10;;;18.40;50.10;;;;;;5033587;28;20445;-44
2022/01/31 11:06:31;;;;;;;9.67;9.37;;;18.40;50.10;;;;;;5033399;28;20484;-44
2022/01/31 11:09:03;;;;;;;9.20;8.70;;;18.40;50.10;;;;;;5033824;28;20473;-45
2022/01/31 11:11:32;;;;;;;8.87;8.57;;;18.30;50.00;;;;;;5033727;28;20441;-49
2022/01/31 11:14:00;;;;;;;10.07;9.53;;;18.30;50.20;;;;;;5033361;28;20507;-45
2022/01/31 11:16:28;;;;;;;10.23;9.83;;;18.20;50.20;;;;;;5033294;28;20491;-45
2022/01/31 11:18:58;;;;;;;9.70;9.40;;;18.20;50.30;;;;;;5033334;28;20469;-45
2022/01/31 11:21:31;;;;;;;9.27;8.97;;;18.20;50.40;;;;;;5033304;28;20445;-44
2022/01/31 11:24:02;;;;;;;10.00;9.50;;;18.10;50.40;;;;;;5033426;28;20784;-45
2022/01/31 11:26:37;;;;;;;9.87;9.53;;;18.00;50.40;;;;;;5033026;28;20480;-45
2022/01/31 11:29:06;;;;;;;9.77;9.57;;;17.90;50.40;;;;;;5033136;28;20472;-45
2022/01/31 11:31:36;;;;;;;9.07;8.77;;;17.80;50.50;;;;;;5033241;28;20449;-45
2022/01/31 11:34:04;;;;;;;9.43;8.93;;;17.80;50.80;;;;;;5033028;28;20453;-45
2022/01/31 11:36:34;;;;;;;9.10;8.60;;;17.70;50.90;;;;;;5032930;28;20544;-45
2022/01/31 11:39:01;;;;;;;9.60;9.27;;;17.60;51.00;;;;;;5033129;28;20469;-45
2022/01/31 11:41:29;;;;;;;9.30;8.90;;;17.60;51.20;;;;;;5032857;28;20476;-45
2022/01/31 11:44:00;;;;;;;8.97;8.63;;;17.60;51.30;;;;;;5032969;28;20448;-45
2022/01/31 11:46:29;;;;;;;9.43;8.87;;;17.70;51.30;;;;;;5032532;28;20993;-45
2022/01/31 11:48:57;;;;;;;9.83;9.30;;;17.90;51.30;;;;;;5032720;28;20473;-45
2022/01/31 11:51:24;;;;;;;9.80;9.47;;;18.00;51.40;;;;;;5032840;28;21027;-45
2022/01/31 11:54:07;;;;;;;9.73;9.23;;;18.10;50.80;;;;;;5032737;28;20544;-45
2022/01/31 11:56:44;;;;;;;9.00;8.50;;;18.30;50.60;;;;;;5032489;28;20491;-45
2022/01/31 11:59:13;;;;;;;10.83;10.33;;;18.30;50.20;;;;;;5032136;28;20821;-45
2022/01/31 12:01:43;;;;;;;9.47;9.07;;;18.40;50.20;;;;;;5032587;28;20445;-45
2022/01/31 12:04:13;;;;;;;10.67;10.17;;;18.30;50.00;;;;;;5032545;28;20965;-45
2022/01/31 12:06:39;;;;;;;10.03;9.63;;;18.40;50.00;;;;;;5032245;28;20848;-45
2022/01/31 12:09:12;;;;;;;10.13;9.70;;;18.40;49.90;;;;;;5032217;28;20473;-45
2022/01/31 12:11:54;;;;;;;9.53;9.07;;;18.40;49.80;;;;;;5032205;28;20457;-46
2022/01/31 12:14:25;;;;;;;10.33;9.87;;;18.30;49.70;;;;;;5032367;28;20910;-45
2022/01/31 12:17:10;;;;;;;9.23;8.93;;;18.30;49.80;;;;;;5032284;28;20447;-45
2022/01/31 12:19:59;;;;;;;10.07;9.70;;;18.30;49.90;;;;;;5032196;28;20982;-44
2022/01/31 12:22:44;;;;;;;10.20;9.80;;;18.30;49.70;;;;;;5032187;28;20453;-45
2022/01/31 12:25:27;;;;;;;10.27;9.87;;;18.30;49.80;;;;;;5031974;28;20966;-45
2022/01/31 12:27:54;;;;;;;10.43;9.93;;;18.20;49.80;;;;;;5032042;28;20472;-45
2022/01/31 12:30:33;;;;;;;9.27;8.90;;;18.20;49.80;;;;;;5031950;28;20823;-46
2022/01/31 12:33:00;;;;;;;9.50;9.00;;;18.20;49.80;;;;;;5031997;28;20441;-46
2022/01/31 12:35:36;;;;;;;9.50;9.17;;;18.20;49.80;;;;;;5031739;28;20445;-45
2022/01/31 12:38:05;;;;;;;9.77;9.33;;;18.20;49.80;;;;;;5031878;28;20452;-46
2022/01/31 12:40:40;;;;;;;10.33;9.70;;;18.20;49.70;;;;;;5031810;28;20472;-45
2022/01/31 12:43:24;;;;;;;9.87;9.20;;;18.20;49.80;;;;;;5031791;28;20981;-45
2022/01/31 12:46:18;;;;;;;9.00;8.80;;;18.10;49.90;;;;;;5031662;28;20492;-46
2022/01/31 12:49:06;;;;;;;11.50;10.80;;;18.10;50.00;;;;;;5031702;28;20441;-50
2022/01/31 12:51:58;;;;;;;9.73;9.33;;;18.00;49.90;;;;;;5031799;28;20812;-47
2022/01/31 12:54:25;;;;;;;9.90;9.50;;;18.00;49.90;;;;;;5031688;28;20473;-48
2022/01/31 12:56:54;;;;;;;10.60;10.10;;;17.90;50.00;;;;;;5031537;28;20454;-45
2022/01/31 12:59:21;;;;;;;9.97;9.57;;;17.90;50.10;;;;;;5031501;28;20476;-46
2022/01/31 13:01:49;;;;;;;9.57;9.27;;;17.90;50.20;;;;;;5031665;28;20456;-46
2022/01/31 13:04:19;;;;;;;9.43;9.03;;;17.90;50.30;;;;;;5031650;28;20441;-47
2022/01/31 13:06:48;;;;;;;10.03;9.73;;;17.90;50.20;;;;;;5031299;28;20481;-44
2022/01/31 13:09:24;;;;;;;9.67;9.27;;;18.00;50.30;;;;;;5031021;28;20487;-45
2022/01/31 13:11:56;;;;;;;10.37;10.00;;;18.00;50.20;;;;;;5031691;28;20480;-45